Time;durP1;ratioP1;P1;durP2;ratioP2;P2;SDS_P1;SDS_P2;PMS_P1;PMS_P2;Temp;Humidity;BMP_temperature;BMP_pressure;BME280_temperature;BME280_humidity;BME280_pressure;Samples;Min_cycle;Max_cycle;Signal;HPM_P1;HPM_P2
2023/12/27 00:01:50;;;;;;;3.58;1.10;;;;;;;;;;5114430;27;20019;-70
2023/12/27 00:04:18;;;;;;;1.92;1.00;;;;;;;;;;5134493;27;20445;-70
2023/12/27 00:06:43;;;;;;;7.90;2.05;;;;;;;;;;5134266;27;20027;-70
2023/12/27 00:09:09;;;;;;;5.57;0.85;;;;;;;;;;5134283;27;20053;-70
2023/12/27 00:11:35;;;;;;;8.00;1.33;;;;;;;;;;5134214;27;20019;-70
2023/12/27 00:14:01;;;;;;;3.88;0.85;;;;;;;;;;5134109;27;20037;-70
2023/12/27 00:16:26;;;;;;;3.47;0.82;;;;;;;;;;5133958;27;20023;-70
2023/12/27 00:18:52;;;;;;;6.07;2.15;;;;;;;;;;5134065;27;20102;-70
2023/12/27 00:21:17;;;;;;;5.65;1.20;;;;;;;;;;5133995;27;20057;-70
2023/12/27 00:23:43;;;;;;;9.10;1.38;;;;;;;;;;5133881;27;20031;-70
2023/12/27 00:26:08;;;;;;;5.90;1.77;;;;;;;;;;5134034;27;20515;-70
2023/12/27 00:28:34;;;;;;;5.57;1.33;;;;;;;;;;5133842;27;20019;-70
2023/12/27 00:30:59;;;;;;;5.25;1.40;;;;;;;;;;5133500;27;20031;-70
2023/12/27 00:33:24;;;;;;;4.05;1.20;;;;;;;;;;5133632;27;20072;-70
2023/12/27 00:35:50;;;;;;;4.15;1.00;;;;;;;;;;5133743;27;20429;-70
2023/12/27 00:38:15;;;;;;;6.60;1.17;;;;;;;;;;5133815;27;20027;-70
2023/12/27 00:40:41;;;;;;;4.30;0.95;;;;;;;;;;5133815;27;20015;-70
2023/12/27 00:43:06;;;;;;;6.32;1.10;;;;;;;;;;5133590;27;20427;-70
2023/12/27 00:45:32;;;;;;;3.63;1.00;;;;;;;;;;5133073;27;20015;-70
2023/12/27 00:47:57;;;;;;;5.35;1.25;;;;;;;;;;5133425;27;20034;-70
2023/12/27 00:50:23;;;;;;;9.43;1.38;;;;;;;;;;5133706;27;20023;-70
2023/12/27 00:52:48;;;;;;;4.15;1.10;;;;;;;;;;5133288;27;20039;-70
2023/12/27 00:55:14;;;;;;;9.15;1.85;;;;;;;;;;5133359;27;20023;-70
2023/12/27 00:57:39;;;;;;;10.32;1.40;;;;;;;;;;5133367;27;20046;-70
2023/12/27 01:00:05;;;;;;;4.43;0.95;;;;;;;;;;5133478;27;20019;-70
2023/12/27 01:02:31;;;;;;;4.55;0.98;;;;;;;;;;5133487;27;20023;-70
2023/12/27 01:04:56;;;;;;;12.23;1.58;;;;;;;;;;5133358;28;20118;-70
2023/12/27 01:07:22;;;;;;;11.23;1.65;;;;;;;;;;5132813;27;20470;-70
2023/12/27 01:09:48;;;;;;;4.60;1.13;;;;;;;;;;5133097;28;20470;-70
2023/12/27 01:12:14;;;;;;;7.93;1.17;;;;;;;;;;5133098;28;20076;-70
2023/12/27 01:14:39;;;;;;;6.22;1.48;;;;;;;;;;5133100;28;20035;-70
2023/12/27 01:17:05;;;;;;;8.50;1.90;;;;;;;;;;5133267;28;20024;-70
2023/12/27 01:19:31;;;;;;;9.07;1.45;;;;;;;;;;5133197;28;20023;-70
2023/12/27 01:21:56;;;;;;;4.47;1.17;;;;;;;;;;5133299;28;20061;-70
2023/12/27 01:24:22;;;;;;;10.73;1.25;;;;;;;;;;5133260;28;20027;-70
2023/12/27 01:26:47;;;;;;;7.63;1.92;;;;;;;;;;5132888;28;20023;-70
2023/12/27 01:29:12;;;;;;;8.55;1.88;;;;;;;;;;5132874;28;20354;-70
2023/12/27 01:31:38;;;;;;;5.93;1.23;;;;;;;;;;5133005;28;20034;-70
2023/12/27 01:34:03;;;;;;;5.88;1.50;;;;;;;;;;5133221;28;20096;-70
2023/12/27 01:36:29;;;;;;;7.10;1.13;;;;;;;;;;5133114;28;20023;-70
2023/12/27 01:38:54;;;;;;;6.28;1.02;;;;;;;;;;5133076;28;20026;-70
2023/12/27 01:41:19;;;;;;;10.82;1.70;;;;;;;;;;5132871;28;20028;-71
2023/12/27 01:43:45;;;;;;;7.80;1.45;;;;;;;;;;5132496;28;20023;-70
2023/12/27 01:46:11;;;;;;;4.57;1.42;;;;;;;;;;5132641;28;20106;-70
2023/12/27 01:48:36;;;;;;;7.03;1.40;;;;;;;;;;5133042;27;20027;-70
2023/12/27 01:51:02;;;;;;;11.95;1.58;;;;;;;;;;5133158;28;20072;-70
2023/12/27 01:53:27;;;;;;;7.15;1.40;;;;;;;;;;5132708;28;20120;-70
2023/12/27 01:55:54;;;;;;;8.23;1.40;;;;;;;;;;5132809;28;20058;-70
2023/12/27 01:58:21;;;;;;;3.15;1.02;;;;;;;;;;5132664;28;20084;-70
2023/12/27 02:00:48;;;;;;;9.93;1.52;;;;;;;;;;5132911;28;20162;-70
2023/12/27 02:03:13;;;;;;;10.88;1.60;;;;;;;;;;5132846;28;20026;-70
2023/12/27 02:05:40;;;;;;;4.13;1.50;;;;;;;;;;5132735;28;20035;-70
2023/12/27 02:08:08;;;;;;;7.15;1.08;;;;;;;;;;5132625;28;20035;-69
2023/12/27 02:10:33;;;;;;;1.20;0.70;;;;;;;;;;5132650;28;20056;-70
2023/12/27 02:13:06;;;;;;;8.70;1.70;;;;;;;;;;5132443;28;20106;-70
2023/12/27 02:15:32;;;;;;;5.43;1.10;;;;;;;;;;5132736;28;20024;-70
2023/12/27 02:18:00;;;;;;;3.97;1.60;;;;;;;;;;5132658;27;20351;-70
2023/12/27 02:20:26;;;;;;;2.45;1.05;;;;;;;;;;5136141;27;20042;-70
2023/12/27 02:22:53;;;;;;;4.70;1.33;;;;;;;;;;5136256;27;20412;-70
2023/12/27 02:25:19;;;;;;;8.40;1.75;;;;;;;;;;5136032;27;20038;-70
2023/12/27 02:27:45;;;;;;;5.65;1.25;;;;;;;;;;5135909;27;20059;-70
2023/12/27 02:30:21;;;;;;;10.35;1.95;;;;;;;;;;5136102;27;20050;-70
2023/12/27 02:32:48;;;;;;;6.90;1.88;;;;;;;;;;5136113;27;20027;-70
2023/12/27 02:35:14;;;;;;;7.60;1.30;;;;;;;;;;5136097;27;20031;-70
2023/12/27 02:37:40;;;;;;;7.25;2.08;;;;;;;;;;5135861;27;20031;-70
2023/12/27 02:40:06;;;;;;;6.10;1.75;;;;;;;;;;5136048;27;20489;-70
2023/12/27 02:42:31;;;;;;;10.38;1.67;;;;;;;;;;5135711;27;20549;-70
2023/12/27 02:44:57;;;;;;;6.60;1.92;;;;;;;;;;5135654;27;20027;-70
2023/12/27 02:47:22;;;;;;;8.05;1.30;;;;;;;;;;5135409;27;20039;-70
2023/12/27 02:49:48;;;;;;;4.25;1.15;;;;;;;;;;5135834;27;20019;-70
2023/12/27 02:52:13;;;;;;;2.45;1.17;;;;;;;;;;5135647;27;20070;-70
2023/12/27 02:54:38;;;;;;;9.88;1.38;;;;;;;;;;5135716;27;20076;-70
2023/12/27 02:57:04;;;;;;;7.25;1.10;;;;;;;;;;5135208;27;20099;-70
2023/12/27 02:59:29;;;;;;;5.18;1.50;;;;;;;;;;5116994;27;20027;-70
2023/12/27 03:01:55;;;;;;;8.10;1.58;;;;;;;;;;5135642;27;20027;-70
2023/12/27 03:04:20;;;;;;;5.65;1.15;;;;;;;;;;5135634;27;20030;-70
2023/12/27 03:06:46;;;;;;;6.25;1.80;;;;;;;;;;5135478;27;20113;-70
2023/12/27 03:09:11;;;;;;;8.32;2.20;;;;;;;;;;5135470;27;20401;-70
2023/12/27 03:11:37;;;;;;;1.58;1.02;;;;;;;;;;5135097;27;20568;-70
2023/12/27 03:14:02;;;;;;;6.05;1.55;;;;;;;;;;5135391;27;20035;-70
2023/12/27 03:16:28;;;;;;;8.05;1.23;;;;;;;;;;5135353;27;20102;-70
2023/12/27 03:18:54;;;;;;;5.07;1.17;;;;;;;;;;5135374;27;20026;-70
2023/12/27 03:21:19;;;;;;;7.63;1.70;;;;;;;;;;5135082;27;20027;-70
2023/12/27 03:23:45;;;;;;;6.78;1.35;;;;;;;;;;5135180;27;20412;-70
2023/12/27 03:26:10;;;;;;;9.15;1.58;;;;;;;;;;5134896;27;20351;-69
2023/12/27 03:28:35;;;;;;;4.78;1.50;;;;;;;;;;5135125;27;20076;-69
2023/12/27 03:31:01;;;;;;;5.53;1.42;;;;;;;;;;5134746;27;20052;-70
2023/12/27 03:33:26;;;;;;;4.43;1.60;;;;;;;;;;5134724;27;20031;-69
2023/12/27 03:35:52;;;;;;;3.25;1.10;;;;;;;;;;5134919;27;20046;-70
2023/12/27 03:38:17;;;;;;;11.02;1.58;;;;;;;;;;5134861;27;20019;-70
2023/12/27 03:40:43;;;;;;;5.18;1.17;;;;;;;;;;5134318;27;20023;-70
2023/12/27 03:43:08;;;;;;;8.30;1.63;;;;;;;;;;5134833;27;20027;-71
2023/12/27 03:45:35;;;;;;;3.92;1.00;;;;;;;;;;5134037;27;20020;-70
2023/12/27 03:48:00;;;;;;;5.80;1.13;;;;;;;;;;5134811;27;20065;-70
2023/12/27 03:50:26;;;;;;;6.15;1.92;;;;;;;;;;5134710;27;20069;-70
2023/12/27 03:52:51;;;;;;;11.15;2.60;;;;;;;;;;5134289;27;20046;-70
2023/12/27 03:55:17;;;;;;;7.25;2.67;;;;;;;;;;5134464;27;20027;-70
2023/12/27 03:57:43;;;;;;;6.63;1.52;;;;;;;;;;5134339;27;20110;-69
2023/12/27 04:00:12;;;;;;;9.05;1.80;;;;;;;;;;5134472;27;20065;-70
2023/12/27 04:02:37;;;;;;;6.50;1.95;;;;;;;;;;5134401;27;20019;-70
2023/12/27 04:05:03;;;;;;;11.80;2.30;;;;;;;;;;5115877;27;20053;-70
2023/12/27 04:07:29;;;;;;;6.57;2.25;;;;;;;;;;5134173;27;20023;-70
2023/12/27 04:09:55;;;;;;;6.30;1.92;;;;;;;;;;5134018;27;20084;-70
2023/12/27 04:12:20;;;;;;;2.05;1.42;;;;;;;;;;5134304;27;20031;-70
2023/12/27 04:14:46;;;;;;;6.53;1.25;;;;;;;;;;5134176;27;20031;-70
2023/12/27 04:17:11;;;;;;;7.13;1.80;;;;;;;;;;5134083;27;20031;-71
2023/12/27 04:19:37;;;;;;;10.50;1.20;;;;;;;;;;5134052;27;20019;-70
2023/12/27 04:22:02;;;;;;;11.40;1.85;;;;;;;;;;5133989;27;20015;-70
2023/12/27 04:24:28;;;;;;;19.27;1.38;;;;;;;;;;5133701;27;20027;-70
2023/12/27 04:26:53;;;;;;;5.50;1.30;;;;;;;;;;5133861;27;20021;-70
2023/12/27 04:29:19;;;;;;;11.40;1.10;;;;;;;;;;5134175;27;20094;-70
2023/12/27 04:31:44;;;;;;;5.28;1.38;;;;;;;;;;5133795;27;20443;-69
2023/12/27 04:34:09;;;;;;;5.82;1.50;;;;;;;;;;5133673;27;20024;-69
2023/12/27 04:36:35;;;;;;;6.10;1.70;;;;;;;;;;5133918;27;20027;-69
2023/12/27 04:39:01;;;;;;;9.30;1.63;;;;;;;;;;5133328;27;20027;-69
2023/12/27 04:41:26;;;;;;;7.38;1.73;;;;;;;;;;5132696;27;20067;-69
2023/12/27 04:43:51;;;;;;;4.85;1.00;;;;;;;;;;5133619;27;20076;-69
2023/12/27 04:46:17;;;;;;;7.43;2.30;;;;;;;;;;5119914;27;20470;-69
2023/12/27 04:48:42;;;;;;;6.05;1.45;;;;;;;;;;5133863;27;20042;-70
2023/12/27 04:51:08;;;;;;;8.45;1.33;;;;;;;;;;5133592;27;20493;-68
2023/12/27 04:53:33;;;;;;;4.38;0.90;;;;;;;;;;5133110;27;20204;-70
2023/12/27 04:55:59;;;;;;;4.90;1.58;;;;;;;;;;5133034;27;20148;-68
2023/12/27 04:58:24;;;;;;;12.00;1.50;;;;;;;;;;5133463;27;20075;-69
2023/12/27 05:00:49;;;;;;;5.10;1.17;;;;;;;;;;5133411;27;20532;-69
2023/12/27 05:03:15;;;;;;;4.40;1.30;;;;;;;;;;5114899;27;20035;-69
2023/12/27 05:05:40;;;;;;;3.75;1.63;;;;;;;;;;5133134;27;20023;-69
2023/12/27 05:08:05;;;;;;;5.03;1.40;;;;;;;;;;5133050;28;20080;-69
2023/12/27 05:10:31;;;;;;;8.35;1.27;;;;;;;;;;5114659;28;20023;-69
2023/12/27 05:12:56;;;;;;;7.28;1.38;;;;;;;;;;5133025;28;20110;-69
2023/12/27 05:15:22;;;;;;;9.55;1.58;;;;;;;;;;5133064;28;20356;-69
2023/12/27 05:17:47;;;;;;;12.93;1.50;;;;;;;;;;5133204;28;20073;-70
2023/12/27 05:20:13;;;;;;;7.32;1.17;;;;;;;;;;5133253;28;20072;-69
2023/12/27 05:22:40;;;;;;;5.63;1.05;;;;;;;;;;5133374;28;20027;-69
2023/12/27 05:25:08;;;;;;;9.30;1.27;;;;;;;;;;5132939;28;20095;-69
2023/12/27 05:27:34;;;;;;;7.15;1.45;;;;;;;;;;5132931;28;20049;-69
2023/12/27 05:30:01;;;;;;;2.97;1.15;;;;;;;;;;5133071;28;20027;-69
2023/12/27 05:32:26;;;;;;;5.90;1.50;;;;;;;;;;5133191;28;20110;-69
2023/12/27 05:34:53;;;;;;;6.13;1.25;;;;;;;;;;5132706;28;20160;-69
2023/12/27 05:37:19;;;;;;;7.13;1.20;;;;;;;;;;5133100;28;20028;-69
2023/12/27 05:39:45;;;;;;;6.07;1.33;;;;;;;;;;5132946;28;20065;-68
2023/12/27 05:42:10;;;;;;;8.60;1.35;;;;;;;;;;5132780;28;20043;-71
2023/12/27 05:44:36;;;;;;;8.05;1.25;;;;;;;;;;5132759;28;20385;-70
2023/12/27 05:47:02;;;;;;;7.10;1.42;;;;;;;;;;5132864;28;20019;-71
2023/12/27 05:49:27;;;;;;;7.00;1.20;;;;;;;;;;5132682;27;20027;-70
2023/12/27 05:51:56;;;;;;;6.07;1.80;;;;;;;;;;5132747;28;20481;-71
2023/12/27 05:54:21;;;;;;;9.13;1.73;;;;;;;;;;5136074;27;20493;-71
2023/12/27 05:56:46;;;;;;;12.15;1.45;;;;;;;;;;5136841;27;20099;-70
2023/12/27 05:59:12;;;;;;;4.57;1.20;;;;;;;;;;5136912;27;20099;-71
2023/12/27 06:01:38;;;;;;;8.13;1.67;;;;;;;;;;5157063;27;20019;-70
2023/12/27 06:04:04;;;;;;;7.80;2.40;;;;;;;;;;5137404;27;20031;-69
2023/12/27 06:06:32;;;;;;;5.43;1.55;;;;;;;;;;5136588;27;20023;-68
2023/12/27 06:08:57;;;;;;;11.88;1.42;;;;;;;;;;5136237;27;20102;-69
2023/12/27 06:11:22;;;;;;;7.85;1.40;;;;;;;;;;5136476;27;20445;-69
2023/12/27 06:13:49;;;;;;;9.45;1.27;;;;;;;;;;5136206;27;20027;-69
2023/12/27 06:16:15;;;;;;;12.88;1.80;;;;;;;;;;5136295;27;20043;-69
2023/12/27 06:18:40;;;;;;;10.52;1.40;;;;;;;;;;5136438;27;20056;-69
2023/12/27 06:21:06;;;;;;;5.82;1.33;;;;;;;;;;5136487;27;20481;-69
2023/12/27 06:23:31;;;;;;;8.70;2.10;;;;;;;;;;5136237;27;20023;-69
2023/12/27 06:25:57;;;;;;;15.32;2.45;;;;;;;;;;5136377;27;20029;-68
2023/12/27 06:28:22;;;;;;;13.98;2.75;;;;;;;;;;5135732;27;20080;-69
2023/12/27 06:30:48;;;;;;;3.70;1.25;;;;;;;;;;5136285;27;20076;-69
2023/12/27 06:33:13;;;;;;;8.50;2.33;;;;;;;;;;5135885;27;20033;-69
2023/12/27 06:35:39;;;;;;;3.97;1.17;;;;;;;;;;5136096;27;20035;-69
2023/12/27 06:38:04;;;;;;;5.97;1.33;;;;;;;;;;5135735;27;20023;-69
2023/12/27 06:40:29;;;;;;;6.32;1.10;;;;;;;;;;5135788;27;20534;-69
2023/12/27 06:42:55;;;;;;;12.10;1.50;;;;;;;;;;5136023;27;20026;-68
2023/12/27 06:45:20;;;;;;;15.07;2.58;;;;;;;;;;5135405;27;20038;-69
2023/12/27 06:47:46;;;;;;;7.75;1.48;;;;;;;;;;5135524;27;20393;-69
2023/12/27 06:50:11;;;;;;;6.20;1.20;;;;;;;;;;5135952;27;20042;-69
2023/12/27 06:52:37;;;;;;;3.17;1.23;;;;;;;;;;5135559;27;20111;-68
2023/12/27 06:55:02;;;;;;;8.13;1.58;;;;;;;;;;5135418;27;20039;-68
2023/12/27 06:57:28;;;;;;;9.63;1.58;;;;;;;;;;5135707;27;20094;-69
2023/12/27 06:59:53;;;;;;;10.57;2.13;;;;;;;;;;5135549;27;20034;-69
2023/12/27 07:02:19;;;;;;;7.93;1.95;;;;;;;;;;5135246;27;20043;-69
2023/12/27 07:04:44;;;;;;;8.80;1.20;;;;;;;;;;5134682;27;20024;-69
2023/12/27 07:07:10;;;;;;;9.07;2.05;;;;;;;;;;5135314;27;20015;-69
2023/12/27 07:09:36;;;;;;;6.65;1.75;;;;;;;;;;5135147;27;20058;-69
2023/12/27 07:12:01;;;;;;;13.63;1.67;;;;;;;;;;5134948;27;20381;-69
2023/12/27 07:14:27;;;;;;;6.70;1.42;;;;;;;;;;5135307;27;20023;-69
2023/12/27 07:16:53;;;;;;;10.57;1.52;;;;;;;;;;5135084;27;20034;-69
2023/12/27 07:19:18;;;;;;;5.35;1.27;;;;;;;;;;5135383;27;20023;-69
2023/12/27 07:21:44;;;;;;;2.70;1.02;;;;;;;;;;5135406;27;20064;-68
2023/12/27 07:24:09;;;;;;;7.90;1.60;;;;;;;;;;5135222;27;20076;-69
2023/12/27 07:26:35;;;;;;;9.60;1.60;;;;;;;;;;5116812;27;20031;-69
2023/12/27 07:29:00;;;;;;;11.18;2.75;;;;;;;;;;5134810;27;20024;-69
2023/12/27 07:31:25;;;;;;;7.13;1.73;;;;;;;;;;5134769;27;20466;-69
2023/12/27 07:33:51;;;;;;;11.25;1.88;;;;;;;;;;5135031;27;20422;-69
2023/12/27 07:36:16;;;;;;;13.90;2.10;;;;;;;;;;5132571;27;20023;-69
2023/12/27 07:38:42;;;;;;;7.05;1.25;;;;;;;;;;5132671;27;20034;-70
2023/12/27 07:41:07;;;;;;;5.32;1.35;;;;;;;;;;5134474;27;20470;-69
2023/12/27 07:43:35;;;;;;;8.93;1.95;;;;;;;;;;5134674;27;20042;-69
2023/12/27 07:46:01;;;;;;;9.10;2.20;;;;;;;;;;5133556;27;20027;-69
2023/12/27 07:48:26;;;;;;;3.55;1.40;;;;;;;;;;5134416;27;20031;-70
2023/12/27 07:50:52;;;;;;;12.32;2.60;;;;;;;;;;5134318;27;20373;-70
2023/12/27 07:53:17;;;;;;;9.02;1.80;;;;;;;;;;5096806;28;20051;-70
2023/12/27 07:55:43;;;;;;;9.40;2.40;;;;;;;;;;5093022;28;20024;-69
2023/12/27 07:58:08;;;;;;;8.85;1.70;;;;;;;;;;5093381;28;20070;-69
2023/12/27 08:00:34;;;;;;;4.70;1.25;;;;;;;;;;5093399;28;20071;-69
2023/12/27 08:03:03;;;;;;;10.25;1.38;;;;;;;;;;5091860;28;20059;-69
2023/12/27 08:05:28;;;;;;;4.20;1.45;;;;;;;;;;5092946;28;20024;-69
2023/12/27 08:07:54;;;;;;;10.80;1.92;;;;;;;;;;5093357;28;20433;-70
2023/12/27 08:10:19;;;;;;;5.97;1.60;;;;;;;;;;5092899;28;20036;-69
2023/12/27 08:12:46;;;;;;;11.45;1.80;;;;;;;;;;5092987;28;20028;-69
2023/12/27 08:15:11;;;;;;;7.00;2.15;;;;;;;;;;5092620;28;20593;-69
2023/12/27 08:17:37;;;;;;;8.00;2.10;;;;;;;;;;5092908;28;20123;-69
2023/12/27 08:20:04;;;;;;;6.68;2.47;;;;;;;;;;5092967;28;20024;-69
2023/12/27 08:22:30;;;;;;;8.23;2.40;;;;;;;;;;5092979;28;20059;-69
2023/12/27 08:24:55;;;;;;;11.00;1.98;;;;;;;;;;5092771;28;20404;-69
2023/12/27 08:27:20;;;;;;;8.23;1.50;;;;;;;;;;5092554;28;20126;-69
2023/12/27 08:29:46;;;;;;;7.00;2.25;;;;;;;;;;5092580;28;20030;-69
2023/12/27 08:32:11;;;;;;;11.07;1.80;;;;;;;;;;5092522;28;20089;-69
2023/12/27 08:34:37;;;;;;;12.00;1.75;;;;;;;;;;5092782;28;20375;-69
2023/12/27 08:37:02;;;;;;;11.18;1.70;;;;;;;;;;5092675;28;20035;-69
2023/12/27 08:39:28;;;;;;;10.13;2.08;;;;;;;;;;5092542;28;20016;-69
2023/12/27 08:41:54;;;;;;;13.65;3.50;;;;;;;;;;5092274;28;20475;-69
2023/12/27 08:44:20;;;;;;;7.07;1.50;;;;;;;;;;5091989;28;20112;-69
2023/12/27 08:46:45;;;;;;;5.10;1.90;;;;;;;;;;5090521;28;20027;-69
2023/12/27 08:49:10;;;;;;;8.50;1.50;;;;;;;;;;5092528;28;20184;-69
2023/12/27 08:51:37;;;;;;;6.97;1.25;;;;;;;;;;5094211;27;20024;-70
2023/12/27 08:54:05;;;;;;;5.80;2.00;;;;;;;;;;5133130;27;20066;-69
2023/12/27 08:56:30;;;;;;;12.18;2.65;;;;;;;;;;5133276;27;20050;-69
2023/12/27 08:58:56;;;;;;;7.05;2.05;;;;;;;;;;5133222;27;20027;-70
2023/12/27 09:01:21;;;;;;;8.15;1.73;;;;;;;;;;5133426;27;20026;-70
2023/12/27 09:03:48;;;;;;;3.55;1.33;;;;;;;;;;5133233;27;20026;-70
2023/12/27 09:06:14;;;;;;;7.20;1.60;;;;;;;;;;5132737;28;20046;-69
2023/12/27 09:08:39;;;;;;;10.38;2.08;;;;;;;;;;5133334;28;20054;-70
2023/12/27 09:11:05;;;;;;;8.85;1.45;;;;;;;;;;5133335;28;20288;-69
2023/12/27 09:13:30;;;;;;;14.43;2.00;;;;;;;;;;5132586;28;20473;-70
2023/12/27 09:15:56;;;;;;;10.32;2.03;;;;;;;;;;5133291;28;20488;-70
2023/12/27 09:18:21;;;;;;;7.88;1.73;;;;;;;;;;5133016;28;20159;-70
2023/12/27 09:20:47;;;;;;;7.97;2.05;;;;;;;;;;5133130;28;20020;-70
2023/12/27 09:23:12;;;;;;;4.28;2.00;;;;;;;;;;5133036;28;20059;-70
2023/12/27 09:25:39;;;;;;;8.80;1.60;;;;;;;;;;5132613;28;20474;-70
2023/12/27 09:28:04;;;;;;;7.28;1.77;;;;;;;;;;5134311;27;20027;-70
2023/12/27 09:30:30;;;;;;;6.75;1.58;;;;;;;;;;5137207;27;20171;-70
2023/12/27 09:32:55;;;;;;;9.00;1.80;;;;;;;;;;5137199;27;20098;-70
2023/12/27 09:35:20;;;;;;;3.58;1.38;;;;;;;;;;5136928;27;20469;-69
2023/12/27 09:37:46;;;;;;;10.60;1.95;;;;;;;;;;5137032;27;20027;-69
2023/12/27 09:40:12;;;;;;;7.32;2.03;;;;;;;;;;5136678;27;20508;-70
2023/12/27 09:42:39;;;;;;;14.35;2.08;;;;;;;;;;5136783;27;20023;-70
2023/12/27 09:45:09;;;;;;;12.27;2.38;;;;;;;;;;5136313;27;20492;-69
2023/12/27 09:47:35;;;;;;;8.73;2.03;;;;;;;;;;5136485;27;20091;-69
2023/12/27 09:50:01;;;;;;;8.70;1.85;;;;;;;;;;5136904;27;20027;-69
2023/12/27 09:52:30;;;;;;;8.05;2.25;;;;;;;;;;5136534;27;20108;-69
2023/12/27 09:54:55;;;;;;;6.85;1.80;;;;;;;;;;5136707;27;20046;-70
2023/12/27 09:57:22;;;;;;;7.47;1.80;;;;;;;;;;5136586;27;20024;-70
2023/12/27 09:59:51;;;;;;;8.55;1.80;;;;;;;;;;5136654;27;20027;-70
2023/12/27 10:02:18;;;;;;;8.50;1.67;;;;;;;;;;5136356;27;20027;-69
2023/12/27 10:05:02;;;;;;;13.82;2.72;;;;;;;;;;5136362;27;20030;-69
2023/12/27 10:07:30;;;;;;;8.90;2.65;;;;;;;;;;5136330;27;20143;-69
2023/12/27 10:09:55;;;;;;;7.00;1.80;;;;;;;;;;5136530;27;20056;-69
2023/12/27 10:12:21;;;;;;;8.70;2.17;;;;;;;;;;5136149;27;20028;-69
2023/12/27 10:14:50;;;;;;;7.43;1.83;;;;;;;;;;5136447;27;20027;-70
2023/12/27 10:17:16;;;;;;;8.52;2.10;;;;;;;;;;5136433;27;20027;-69
2023/12/27 10:19:45;;;;;;;11.00;2.10;;;;;;;;;;5136022;27;20399;-69
2023/12/27 10:22:14;;;;;;;9.80;2.00;;;;;;;;;;5135995;27;20156;-69
2023/12/27 10:24:40;;;;;;;7.90;2.20;;;;;;;;;;5135782;27;20015;-69
2023/12/27 10:27:07;;;;;;;8.27;1.85;;;;;;;;;;5135920;27;20050;-69
2023/12/27 10:29:33;;;;;;;5.72;1.73;;;;;;;;;;5135811;27;20088;-69
2023/12/27 10:32:03;;;;;;;12.88;2.25;;;;;;;;;;5135916;27;20051;-69
2023/12/27 10:34:29;;;;;;;10.13;2.38;;;;;;;;;;5135544;27;20027;-69
2023/12/27 10:36:59;;;;;;;8.95;1.85;;;;;;;;;;5135698;27;20042;-69
2023/12/27 10:39:25;;;;;;;12.65;2.17;;;;;;;;;;5134127;27;20027;-70
2023/12/27 10:41:54;;;;;;;13.55;2.53;;;;;;;;;;5135791;27;20035;-69
2023/12/27 10:44:21;;;;;;;6.13;2.08;;;;;;;;;;5134897;27;20031;-69
2023/12/27 10:46:48;;;;;;;8.00;2.17;;;;;;;;;;5135493;27;20019;-69
2023/12/27 10:49:15;;;;;;;9.30;2.20;;;;;;;;;;5135506;27;20362;-69
2023/12/27 10:51:41;;;;;;;9.77;1.75;;;;;;;;;;5135400;27;20115;-69
2023/12/27 10:54:07;;;;;;;6.15;2.00;;;;;;;;;;5135141;27;20110;-69
2023/12/27 10:56:37;;;;;;;6.28;1.88;;;;;;;;;;5135654;27;20054;-69
2023/12/27 10:59:07;;;;;;;10.10;1.90;;;;;;;;;;5135586;27;20019;-69
2023/12/27 11:01:34;;;;;;;7.95;1.90;;;;;;;;;;5135416;27;20049;-69
2023/12/27 11:04:03;;;;;;;12.32;2.20;;;;;;;;;;5135399;27;20069;-69
2023/12/27 11:06:29;;;;;;;8.25;1.92;;;;;;;;;;5135194;27;20431;-69
2023/12/27 11:08:55;;;;;;;8.07;2.20;;;;;;;;;;5134795;27;20496;-69
2023/12/27 11:11:23;;;;;;;10.75;2.42;;;;;;;;;;5135436;27;20031;-69
2023/12/27 11:13:49;;;;;;;8.90;1.83;;;;;;;;;;5135350;27;20427;-69
2023/12/27 11:16:16;;;;;;;5.47;2.95;;;;;;;;;;5134787;27;20088;-69
2023/12/27 11:18:44;;;;;;;10.23;2.33;;;;;;;;;;5135262;27;20026;-69
2023/12/27 11:21:09;;;;;;;11.82;2.03;;;;;;;;;;5135243;27;20482;-69
2023/12/27 11:23:35;;;;;;;12.98;3.20;;;;;;;;;;5134740;27;20046;-69
2023/12/27 11:26:04;;;;;;;14.82;2.53;;;;;;;;;;5134368;27;20029;-69
2023/12/27 11:28:32;;;;;;;5.68;2.22;;;;;;;;;;5134916;27;20031;-69
2023/12/27 11:30:58;;;;;;;6.93;2.45;;;;;;;;;;5134872;27;20043;-69
2023/12/27 11:33:24;;;;;;;11.48;3.15;;;;;;;;;;5134640;27;20054;-69
2023/12/27 11:35:51;;;;;;;15.68;3.92;;;;;;;;;;5134609;27;20019;-69
2023/12/27 11:38:25;;;;;;;9.75;3.00;;;;;;;;;;5134265;27;20023;-69
2023/12/27 11:40:52;;;;;;;5.80;2.17;;;;;;;;;;5134476;27;20080;-69
2023/12/27 11:43:26;;;;;;;8.15;2.08;;;;;;;;;;5134513;27;20045;-69
2023/12/27 11:46:02;;;;;;;10.75;2.05;;;;;;;;;;5133662;27;20023;-68
2023/12/27 11:48:32;;;;;;;8.15;2.08;;;;;;;;;;5134227;27;20079;-69
2023/12/27 11:50:59;;;;;;;10.20;2.00;;;;;;;;;;5134355;27;20062;-69
2023/12/27 11:53:28;;;;;;;13.38;2.00;;;;;;;;;;5134061;27;20039;-69
2023/12/27 11:55:58;;;;;;;9.23;2.20;;;;;;;;;;5134365;27;20054;-69
2023/12/27 11:58:35;;;;;;;11.32;3.60;;;;;;;;;;5134063;27;20132;-69
2023/12/27 12:01:30;;;;;;;10.07;3.42;;;;;;;;;;5134195;27;20027;-69
2023/12/27 12:04:08;;;;;;;9.60;3.05;;;;;;;;;;5134003;27;20129;-69
2023/12/27 12:06:55;;;;;;;13.18;2.40;;;;;;;;;;5133620;27;20535;-68
2023/12/27 12:09:33;;;;;;;6.70;2.22;;;;;;;;;;5134250;27;20110;-68
2023/12/27 12:12:28;;;;;;;12.07;2.22;;;;;;;;;;5134217;27;20019;-68
2023/12/27 12:14:55;;;;;;;5.60;2.10;;;;;;;;;;5116226;27;20147;-68
2023/12/27 12:17:22;;;;;;;9.32;1.88;;;;;;;;;;5133900;27;20019;-68
2023/12/27 12:19:49;;;;;;;15.15;2.80;;;;;;;;;;5133596;27;20031;-68
2023/12/27 12:22:15;;;;;;;11.70;2.33;;;;;;;;;;5133601;27;20034;-71
2023/12/27 12:24:40;;;;;;;9.52;2.83;;;;;;;;;;5133550;27;20032;-69
2023/12/27 12:27:06;;;;;;;8.23;1.98;;;;;;;;;;5133694;27;20113;-69
2023/12/27 12:29:32;;;;;;;7.72;2.17;;;;;;;;;;5133456;27;20100;-69
2023/12/27 12:31:58;;;;;;;14.50;2.38;;;;;;;;;;5133753;27;20045;-70
2023/12/27 12:34:25;;;;;;;11.77;3.00;;;;;;;;;;5133235;27;20019;-69
2023/12/27 12:36:52;;;;;;;9.07;2.42;;;;;;;;;;5133391;27;20362;-70
2023/12/27 12:39:18;;;;;;;8.43;2.20;;;;;;;;;;5133619;27;20080;-70
2023/12/27 12:41:44;;;;;;;10.98;2.35;;;;;;;;;;5133396;27;20162;-71
2023/12/27 12:44:10;;;;;;;11.18;2.80;;;;;;;;;;5133125;27;20039;-70
2023/12/27 12:46:38;;;;;;;10.07;3.40;;;;;;;;;;5133047;27;20119;-69
2023/12/27 12:49:05;;;;;;;12.40;2.35;;;;;;;;;;5133470;27;20027;-71
2023/12/27 12:51:31;;;;;;;11.38;2.53;;;;;;;;;;5132797;27;20023;-71
2023/12/27 12:53:56;;;;;;;9.98;2.13;;;;;;;;;;5133234;27;20110;-70
2023/12/27 12:56:22;;;;;;;9.45;2.50;;;;;;;;;;5132930;27;20435;-70
2023/12/27 12:58:48;;;;;;;10.55;2.38;;;;;;;;;;5133014;27;20093;-70
2023/12/27 13:01:14;;;;;;;7.45;2.60;;;;;;;;;;5133284;27;20019;-70
2023/12/27 13:03:43;;;;;;;7.30;2.50;;;;;;;;;;5132368;27;20470;-71
2023/12/27 13:06:15;;;;;;;12.68;3.05;;;;;;;;;;5132754;27;20026;-70
2023/12/27 13:08:42;;;;;;;11.15;2.92;;;;;;;;;;5133139;28;20026;-70
2023/12/27 13:11:08;;;;;;;8.50;2.22;;;;;;;;;;5133054;28;20389;-69
2023/12/27 13:13:34;;;;;;;10.43;2.40;;;;;;;;;;5132778;28;20023;-68
2023/12/27 13:15:59;;;;;;;13.77;2.70;;;;;;;;;;5133161;28;20418;-69
2023/12/27 13:18:26;;;;;;;7.25;2.53;;;;;;;;;;5132907;28;20034;-70
2023/12/27 13:20:52;;;;;;;8.70;2.60;;;;;;;;;;5132914;28;20023;-70
2023/12/27 13:23:18;;;;;;;11.57;3.67;;;;;;;;;;5133057;28;20058;-69
2023/12/27 13:25:44;;;;;;;6.13;2.72;;;;;;;;;;5132547;28;20038;-71
2023/12/27 13:28:09;;;;;;;10.48;3.28;;;;;;;;;;5132620;28;20027;-71
2023/12/27 13:30:35;;;;;;;8.45;1.95;;;;;;;;;;5133094;28;20039;-71
2023/12/27 13:33:02;;;;;;;12.02;2.60;;;;;;;;;;5132770;28;20030;-71
2023/12/27 13:35:29;;;;;;;10.05;2.40;;;;;;;;;;5132356;28;20497;-71
2023/12/27 13:37:55;;;;;;;7.70;2.38;;;;;;;;;;5132922;28;20039;-70
2023/12/27 13:40:20;;;;;;;10.43;3.08;;;;;;;;;;5132423;28;20087;-70
2023/12/27 13:42:46;;;;;;;9.80;2.83;;;;;;;;;;5133037;28;20076;-69
2023/12/27 13:45:11;;;;;;;7.13;2.40;;;;;;;;;;5113981;28;20035;-71
2023/12/27 13:47:36;;;;;;;11.13;2.15;;;;;;;;;;5132791;28;20019;-72
2023/12/27 13:50:02;;;;;;;8.38;2.08;;;;;;;;;;5132365;28;20526;-69
2023/12/27 13:52:28;;;;;;;9.10;2.60;;;;;;;;;;5132338;28;20043;-70
2023/12/27 13:54:53;;;;;;;8.93;1.90;;;;;;;;;;5132393;28;20031;-71
2023/12/27 13:57:19;;;;;;;11.05;2.67;;;;;;;;;;5132858;28;20015;-70
2023/12/27 13:59:45;;;;;;;10.25;2.88;;;;;;;;;;5132213;28;20035;-70
2023/12/27 14:02:11;;;;;;;9.82;3.08;;;;;;;;;;5132440;28;20030;-71
2023/12/27 14:04:36;;;;;;;8.13;2.47;;;;;;;;;;5132430;28;20083;-70
2023/12/27 14:07:03;;;;;;;9.00;2.30;;;;;;;;;;5113535;28;20387;-70
2023/12/27 14:09:28;;;;;;;10.13;2.63;;;;;;;;;;5132699;28;20019;-70
2023/12/27 14:11:54;;;;;;;9.93;3.05;;;;;;;;;;5132712;28;20075;-68
2023/12/27 14:14:20;;;;;;;8.60;3.22;;;;;;;;;;5133683;27;20039;-69
2023/12/27 14:16:46;;;;;;;9.68;3.03;;;;;;;;;;5136166;27;20523;-69
2023/12/27 14:19:13;;;;;;;16.05;2.95;;;;;;;;;;5136010;27;20644;-69
2023/12/27 14:21:39;;;;;;;11.95;3.13;;;;;;;;;;5136180;27;20019;-69
2023/12/27 14:24:05;;;;;;;10.82;3.28;;;;;;;;;;5135932;27;20428;-69
2023/12/27 14:26:31;;;;;;;12.40;3.20;;;;;;;;;;5135689;27;20024;-69
2023/12/27 14:28:57;;;;;;;10.60;3.28;;;;;;;;;;5136043;27;20119;-69
2023/12/27 14:31:22;;;;;;;10.30;3.03;;;;;;;;;;5135739;27;20034;-69
2023/12/27 14:33:48;;;;;;;9.55;2.92;;;;;;;;;;5135872;27;20031;-69